sensor_id;sensor_type;location;lat;lon;timestamp;P1;durP1;ratioP1;P2;durP2;ratioP2
7879;SDS011;3985;49.366;2.738;2023-07-29T00:01:59;3.20;;;3.20;;
7879;SDS011;3985;49.366;2.738;2023-07-29T00:04:28;3.60;;;3.60;;
7879;SDS011;3985;49.366;2.738;2023-07-29T00:06:55;2.00;;;2.00;;
7879;SDS011;3985;49.366;2.738;2023-07-29T00:09:24;2.00;;;2.00;;
7879;SDS011;3985;49.366;2.738;2023-07-29T00:11:52;1.80;;;1.80;;
7879;SDS011;3985;49.366;2.738;2023-07-29T00:14:19;2.40;;;2.40;;
7879;SDS011;3985;49.366;2.738;2023-07-29T00:16:46;2.00;;;2.00;;
7879;SDS011;3985;49.366;2.738;2023-07-29T00:19:13;0.80;;;0.80;;
7879;SDS011;3985;49.366;2.738;2023-07-29T00:21:41;1.00;;;1.00;;
7879;SDS011;3985;49.366;2.738;2023-07-29T00:24:08;2.80;;;1.00;;
7879;SDS011;3985;49.366;2.738;2023-07-29T00:26:37;1.20;;;1.20;;
7879;SDS011;3985;49.366;2.738;2023-07-29T00:29:04;1.00;;;1.00;;
7879;SDS011;3985;49.366;2.738;2023-07-29T00:31:32;1.00;;;1.00;;
7879;SDS011;3985;49.366;2.738;2023-07-29T00:33:59;3.40;;;3.40;;
7879;SDS011;3985;49.366;2.738;2023-07-29T00:36:26;2.20;;;2.20;;
7879;SDS011;3985;49.366;2.738;2023-07-29T00:38:56;3.00;;;3.00;;
7879;SDS011;3985;49.366;2.738;2023-07-29T00:41:24;3.80;;;3.80;;
7879;SDS011;3985;49.366;2.738;2023-07-29T00:43:55;3.00;;;3.00;;
7879;SDS011;3985;49.366;2.738;2023-07-29T00:46:22;2.60;;;2.60;;
7879;SDS011;3985;49.366;2.738;2023-07-29T00:48:50;2.40;;;2.40;;
7879;SDS011;3985;49.366;2.738;2023-07-29T00:51:17;5.00;;;3.40;;
7879;SDS011;3985;49.366;2.738;2023-07-29T00:53:44;6.25;;;4.50;;
7879;SDS011;3985;49.366;2.738;2023-07-29T00:56:12;12.75;;;10.75;;
7879;SDS011;3985;49.366;2.738;2023-07-29T00:58:39;14.50;;;14.50;;
7879;SDS011;3985;49.366;2.738;2023-07-29T01:01:09;15.25;;;15.25;;
7879;SDS011;3985;49.366;2.738;2023-07-29T01:03:36;9.00;;;9.00;;
7879;SDS011;3985;49.366;2.738;2023-07-29T01:06:07;12.50;;;12.50;;
7879;SDS011;3985;49.366;2.738;2023-07-29T01:08:44;16.75;;;16.75;;
7879;SDS011;3985;49.366;2.738;2023-07-29T01:11:18;6.60;;;6.60;;
7879;SDS011;3985;49.366;2.738;2023-07-29T01:13:55;5.40;;;5.40;;
7879;SDS011;3985;49.366;2.738;2023-07-29T01:16:29;4.60;;;4.60;;
7879;SDS011;3985;49.366;2.738;2023-07-29T01:18:59;7.00;;;7.00;;
7879;SDS011;3985;49.366;2.738;2023-07-29T01:21:27;11.20;;;11.20;;
7879;SDS011;3985;49.366;2.738;2023-07-29T01:23:59;10.00;;;10.00;;
7879;SDS011;3985;49.366;2.738;2023-07-29T01:26:29;12.00;;;11.00;;
7879;SDS011;3985;49.366;2.738;2023-07-29T01:28:56;7.20;;;7.20;;
7879;SDS011;3985;49.366;2.738;2023-07-29T01:31:27;4.75;;;4.75;;
7879;SDS011;3985;49.366;2.738;2023-07-29T01:34:01;4.60;;;4.60;;
7879;SDS011;3985;49.366;2.738;2023-07-29T01:36:43;4.20;;;2.60;;
7879;SDS011;3985;49.366;2.738;2023-07-29T01:39:13;3.80;;;3.80;;
7879;SDS011;3985;49.366;2.738;2023-07-29T01:41:41;3.80;;;3.80;;
7879;SDS011;3985;49.366;2.738;2023-07-29T01:44:10;1.80;;;1.80;;
7879;SDS011;3985;49.366;2.738;2023-07-29T01:46:37;3.20;;;3.20;;
7879;SDS011;3985;49.366;2.738;2023-07-29T01:49:05;4.80;;;3.60;;
7879;SDS011;3985;49.366;2.738;2023-07-29T01:51:32;3.20;;;3.20;;
7879;SDS011;3985;49.366;2.738;2023-07-29T01:53:59;4.00;;;4.00;;
7879;SDS011;3985;49.366;2.738;2023-07-29T01:56:30;3.00;;;3.00;;
7879;SDS011;3985;49.366;2.738;2023-07-29T01:59:02;4.00;;;4.00;;
7879;SDS011;3985;49.366;2.738;2023-07-29T02:01:29;4.00;;;4.00;;
7879;SDS011;3985;49.366;2.738;2023-07-29T02:03:56;2.40;;;2.40;;
7879;SDS011;3985;49.366;2.738;2023-07-29T02:06:26;4.20;;;4.00;;
7879;SDS011;3985;49.366;2.738;2023-07-29T02:08:54;3.80;;;3.80;;
7879;SDS011;3985;49.366;2.738;2023-07-29T02:11:21;4.00;;;2.20;;
7879;SDS011;3985;49.366;2.738;2023-07-29T02:13:53;2.40;;;2.40;;
7879;SDS011;3985;49.366;2.738;2023-07-29T02:16:21;3.80;;;3.80;;
7879;SDS011;3985;49.366;2.738;2023-07-29T02:18:48;5.00;;;3.60;;
7879;SDS011;3985;49.366;2.738;2023-07-29T02:21:16;2.40;;;2.40;;
7879;SDS011;3985;49.366;2.738;2023-07-29T02:23:43;4.00;;;4.00;;
7879;SDS011;3985;49.366;2.738;2023-07-29T02:26:10;3.40;;;3.20;;
7879;SDS011;3985;49.366;2.738;2023-07-29T02:28:41;4.40;;;3.00;;
7879;SDS011;3985;49.366;2.738;2023-07-29T02:31:16;3.40;;;3.40;;
7879;SDS011;3985;49.366;2.738;2023-07-29T02:33:45;3.00;;;3.00;;
7879;SDS011;3985;49.366;2.738;2023-07-29T02:36:13;3.40;;;3.40;;
7879;SDS011;3985;49.366;2.738;2023-07-29T02:38:43;5.40;;;4.20;;
7879;SDS011;3985;49.366;2.738;2023-07-29T02:41:11;4.40;;;3.20;;
7879;SDS011;3985;49.366;2.738;2023-07-29T02:43:38;5.60;;;5.00;;
7879;SDS011;3985;49.366;2.738;2023-07-29T02:46:08;4.20;;;4.20;;
7879;SDS011;3985;49.366;2.738;2023-07-29T02:48:37;5.80;;;4.40;;
7879;SDS011;3985;49.366;2.738;2023-07-29T02:51:04;3.60;;;3.60;;
7879;SDS011;3985;49.366;2.738;2023-07-29T02:53:31;4.00;;;4.00;;
7879;SDS011;3985;49.366;2.738;2023-07-29T02:55:59;4.00;;;4.00;;
7879;SDS011;3985;49.366;2.738;2023-07-29T02:58:28;2.20;;;2.00;;
7879;SDS011;3985;49.366;2.738;2023-07-29T03:01:00;6.20;;;4.60;;
7879;SDS011;3985;49.366;2.738;2023-07-29T03:03:27;4.20;;;4.00;;
7879;SDS011;3985;49.366;2.738;2023-07-29T03:05:58;3.80;;;3.80;;
7879;SDS011;3985;49.366;2.738;2023-07-29T03:08:26;3.20;;;3.20;;
7879;SDS011;3985;49.366;2.738;2023-07-29T03:10:54;5.60;;;5.60;;
7879;SDS011;3985;49.366;2.738;2023-07-29T03:13:21;4.60;;;4.60;;
7879;SDS011;3985;49.366;2.738;2023-07-29T03:15:49;5.80;;;5.80;;
7879;SDS011;3985;49.366;2.738;2023-07-29T03:18:16;7.80;;;7.20;;
7879;SDS011;3985;49.366;2.738;2023-07-29T03:20:43;7.00;;;7.00;;
7879;SDS011;3985;49.366;2.738;2023-07-29T03:23:12;6.80;;;6.80;;
7879;SDS011;3985;49.366;2.738;2023-07-29T03:25:39;6.20;;;6.20;;
7879;SDS011;3985;49.366;2.738;2023-07-29T03:28:06;4.80;;;4.80;;
7879;SDS011;3985;49.366;2.738;2023-07-29T03:30:33;5.60;;;5.60;;
7879;SDS011;3985;49.366;2.738;2023-07-29T03:33:01;6.40;;;6.40;;
7879;SDS011;3985;49.366;2.738;2023-07-29T03:35:29;5.80;;;5.80;;
7879;SDS011;3985;49.366;2.738;2023-07-29T03:37:56;5.80;;;5.80;;
7879;SDS011;3985;49.366;2.738;2023-07-29T03:40:27;4.20;;;4.20;;
7879;SDS011;3985;49.366;2.738;2023-07-29T03:42:55;6.00;;;6.00;;
7879;SDS011;3985;49.366;2.738;2023-07-29T03:45:22;6.20;;;5.80;;
7879;SDS011;3985;49.366;2.738;2023-07-29T03:47:49;6.40;;;6.40;;
7879;SDS011;3985;49.366;2.738;2023-07-29T03:50:16;8.20;;;6.80;;
7879;SDS011;3985;49.366;2.738;2023-07-29T03:52:44;5.40;;;5.40;;
7879;SDS011;3985;49.366;2.738;2023-07-29T03:55:11;4.80;;;4.80;;
7879;SDS011;3985;49.366;2.738;2023-07-29T03:57:40;5.00;;;5.00;;
7879;SDS011;3985;49.366;2.738;2023-07-29T04:00:10;5.80;;;5.80;;
7879;SDS011;3985;49.366;2.738;2023-07-29T04:02:38;5.00;;;5.00;;
7879;SDS011;3985;49.366;2.738;2023-07-29T04:05:07;4.80;;;4.80;;
7879;SDS011;3985;49.366;2.738;2023-07-29T04:07:37;4.00;;;4.00;;
7879;SDS011;3985;49.366;2.738;2023-07-29T04:10:05;4.00;;;4.00;;
7879;SDS011;3985;49.366;2.738;2023-07-29T04:12:36;3.00;;;3.00;;
7879;SDS011;3985;49.366;2.738;2023-07-29T04:15:05;5.60;;;5.20;;
7879;SDS011;3985;49.366;2.738;2023-07-29T04:17:33;4.40;;;4.40;;
7879;SDS011;3985;49.366;2.738;2023-07-29T04:20:01;3.80;;;3.80;;
7879;SDS011;3985;49.366;2.738;2023-07-29T04:22:29;4.00;;;4.00;;
7879;SDS011;3985;49.366;2.738;2023-07-29T04:24:56;4.40;;;4.40;;
7879;SDS011;3985;49.366;2.738;2023-07-29T04:27:29;2.80;;;2.80;;
7879;SDS011;3985;49.366;2.738;2023-07-29T04:29:56;4.00;;;4.00;;
7879;SDS011;3985;49.366;2.738;2023-07-29T04:32:25;5.00;;;4.00;;
7879;SDS011;3985;49.366;2.738;2023-07-29T04:34:52;1.20;;;1.20;;
7879;SDS011;3985;49.366;2.738;2023-07-29T04:37:19;2.00;;;2.00;;
7879;SDS011;3985;49.366;2.738;2023-07-29T04:39:47;3.00;;;3.00;;
7879;SDS011;3985;49.366;2.738;2023-07-29T04:42:14;3.60;;;2.00;;
7879;SDS011;3985;49.366;2.738;2023-07-29T04:44:41;4.40;;;2.00;;
7879;SDS011;3985;49.366;2.738;2023-07-29T04:47:08;2.40;;;2.40;;
7879;SDS011;3985;49.366;2.738;2023-07-29T04:49:39;2.20;;;2.20;;
7879;SDS011;3985;49.366;2.738;2023-07-29T04:52:06;2.00;;;2.00;;
7879;SDS011;3985;49.366;2.738;2023-07-29T04:54:34;2.00;;;2.00;;
7879;SDS011;3985;49.366;2.738;2023-07-29T04:57:01;1.00;;;1.00;;
7879;SDS011;3985;49.366;2.738;2023-07-29T04:59:30;2.20;;;2.20;;
7879;SDS011;3985;49.366;2.738;2023-07-29T05:01:57;2.00;;;2.00;;
7879;SDS011;3985;49.366;2.738;2023-07-29T05:04:28;3.80;;;2.00;;
7879;SDS011;3985;49.366;2.738;2023-07-29T05:06:58;2.00;;;2.00;;
7879;SDS011;3985;49.366;2.738;2023-07-29T05:09:27;1.80;;;1.80;;
7879;SDS011;3985;49.366;2.738;2023-07-29T05:11:54;2.00;;;2.00;;
7879;SDS011;3985;49.366;2.738;2023-07-29T05:14:21;0.80;;;0.80;;
7879;SDS011;3985;49.366;2.738;2023-07-29T05:16:48;1.00;;;1.00;;
7879;SDS011;3985;49.366;2.738;2023-07-29T05:19:16;2.60;;;1.40;;
7879;SDS011;3985;49.366;2.738;2023-07-29T05:21:43;1.60;;;1.60;;
7879;SDS011;3985;49.366;2.738;2023-07-29T05:24:12;3.00;;;1.60;;
7879;SDS011;3985;49.366;2.738;2023-07-29T05:26:39;0.80;;;0.80;;
7879;SDS011;3985;49.366;2.738;2023-07-29T05:29:06;2.00;;;2.00;;
7879;SDS011;3985;49.366;2.738;2023-07-29T05:31:33;1.00;;;1.00;;
7879;SDS011;3985;49.366;2.738;2023-07-29T05:34:01;2.80;;;1.20;;
7879;SDS011;3985;49.366;2.738;2023-07-29T05:36:28;1.40;;;1.40;;
7879;SDS011;3985;49.366;2.738;2023-07-29T05:38:55;1.00;;;1.00;;
7879;SDS011;3985;49.366;2.738;2023-07-29T05:41:24;1.60;;;1.60;;
7879;SDS011;3985;49.366;2.738;2023-07-29T05:43:53;2.00;;;2.00;;
7879;SDS011;3985;49.366;2.738;2023-07-29T05:46:20;0.80;;;0.80;;
7879;SDS011;3985;49.366;2.738;2023-07-29T05:48:47;0.80;;;0.80;;
7879;SDS011;3985;49.366;2.738;2023-07-29T05:51:15;1.40;;;1.20;;
7879;SDS011;3985;49.366;2.738;2023-07-29T05:53:42;1.20;;;1.20;;
7879;SDS011;3985;49.366;2.738;2023-07-29T05:56:09;2.00;;;2.00;;
7879;SDS011;3985;49.366;2.738;2023-07-29T05:58:38;1.00;;;1.00;;
7879;SDS011;3985;49.366;2.738;2023-07-29T06:01:05;1.00;;;1.00;;
7879;SDS011;3985;49.366;2.738;2023-07-29T06:03:32;2.00;;;2.00;;
7879;SDS011;3985;49.366;2.738;2023-07-29T06:06:00;1.00;;;1.00;;
7879;SDS011;3985;49.366;2.738;2023-07-29T06:08:27;0.80;;;0.80;;
7879;SDS011;3985;49.366;2.738;2023-07-29T06:10:54;1.80;;;1.80;;
7879;SDS011;3985;49.366;2.738;2023-07-29T06:13:21;1.40;;;1.40;;
7879;SDS011;3985;49.366;2.738;2023-07-29T06:15:50;1.80;;;1.80;;
7879;SDS011;3985;49.366;2.738;2023-07-29T06:18:17;1.80;;;1.80;;
7879;SDS011;3985;49.366;2.738;2023-07-29T06:20:44;1.00;;;1.00;;
7879;SDS011;3985;49.366;2.738;2023-07-29T06:23:11;1.40;;;1.40;;
7879;SDS011;3985;49.366;2.738;2023-07-29T06:25:39;1.00;;;1.00;;
7879;SDS011;3985;49.366;2.738;2023-07-29T06:28:06;1.00;;;1.00;;
7879;SDS011;3985;49.366;2.738;2023-07-29T06:30:33;2.00;;;2.00;;
7879;SDS011;3985;49.366;2.738;2023-07-29T06:33:02;1.40;;;1.40;;
7879;SDS011;3985;49.366;2.738;2023-07-29T06:35:29;1.00;;;1.00;;
7879;SDS011;3985;49.366;2.738;2023-07-29T06:37:56;1.80;;;1.80;;
7879;SDS011;3985;49.366;2.738;2023-07-29T06:40:23;1.00;;;1.00;;
7879;SDS011;3985;49.366;2.738;2023-07-29T06:42:51;0.80;;;0.80;;
7879;SDS011;3985;49.366;2.738;2023-07-29T06:45:18;0.80;;;0.80;;
7879;SDS011;3985;49.366;2.738;2023-07-29T06:47:45;0.00;;;0.00;;
7879;SDS011;3985;49.366;2.738;2023-07-29T06:50:13;0.60;;;0.60;;
7879;SDS011;3985;49.366;2.738;2023-07-29T06:52:41;1.00;;;1.00;;
7879;SDS011;3985;49.366;2.738;2023-07-29T06:55:08;1.60;;;1.60;;
7879;SDS011;3985;49.366;2.738;2023-07-29T06:57:35;0.80;;;0.80;;
7879;SDS011;3985;49.366;2.738;2023-07-29T07:00:03;1.00;;;1.00;;
7879;SDS011;3985;49.366;2.738;2023-07-29T07:02:31;2.00;;;0.20;;
7879;SDS011;3985;49.366;2.738;2023-07-29T07:04:58;0.20;;;0.20;;
7879;SDS011;3985;49.366;2.738;2023-07-29T07:07:27;0.80;;;0.80;;
7879;SDS011;3985;49.366;2.738;2023-07-29T07:09:54;0.80;;;0.80;;
7879;SDS011;3985;49.366;2.738;2023-07-29T07:12:21;0.80;;;0.80;;
7879;SDS011;3985;49.366;2.738;2023-07-29T07:14:49;0.00;;;0.00;;
7879;SDS011;3985;49.366;2.738;2023-07-29T07:17:16;0.20;;;0.20;;
7879;SDS011;3985;49.366;2.738;2023-07-29T07:19:43;1.20;;;1.20;;
7879;SDS011;3985;49.366;2.738;2023-07-29T07:22:11;1.20;;;1.20;;
7879;SDS011;3985;49.366;2.738;2023-07-29T07:24:40;1.20;;;1.20;;
7879;SDS011;3985;49.366;2.738;2023-07-29T07:27:07;1.00;;;1.00;;
7879;SDS011;3985;49.366;2.738;2023-07-29T07:29:34;0.80;;;0.80;;
7879;SDS011;3985;49.366;2.738;2023-07-29T07:32:01;0.00;;;0.00;;
7879;SDS011;3985;49.366;2.738;2023-07-29T07:34:29;0.80;;;0.80;;
7879;SDS011;3985;49.366;2.738;2023-07-29T07:36:58;0.60;;;0.60;;
7879;SDS011;3985;49.366;2.738;2023-07-29T07:39:25;0.80;;;0.80;;
7879;SDS011;3985;49.366;2.738;2023-07-29T07:41:54;0.60;;;0.60;;
7879;SDS011;3985;49.366;2.738;2023-07-29T07:44:21;0.40;;;0.40;;
7879;SDS011;3985;49.366;2.738;2023-07-29T07:46:51;0.60;;;0.60;;
7879;SDS011;3985;49.366;2.738;2023-07-29T07:49:18;0.20;;;0.20;;
7879;SDS011;3985;49.366;2.738;2023-07-29T07:51:48;1.00;;;1.00;;
7879;SDS011;3985;49.366;2.738;2023-07-29T07:54:16;0.20;;;0.20;;
7879;SDS011;3985;49.366;2.738;2023-07-29T07:56:43;1.00;;;1.00;;
7879;SDS011;3985;49.366;2.738;2023-07-29T07:59:12;0.80;;;0.80;;
7879;SDS011;3985;49.366;2.738;2023-07-29T08:01:39;0.40;;;0.40;;
7879;SDS011;3985;49.366;2.738;2023-07-29T08:04:06;0.00;;;0.00;;
7879;SDS011;3985;49.366;2.738;2023-07-29T08:06:33;0.20;;;0.20;;
7879;SDS011;3985;49.366;2.738;2023-07-29T08:09:01;1.00;;;1.00;;
7879;SDS011;3985;49.366;2.738;2023-07-29T08:11:29;0.40;;;0.40;;
7879;SDS011;3985;49.366;2.738;2023-07-29T08:13:56;0.60;;;0.60;;
7879;SDS011;3985;49.366;2.738;2023-07-29T08:16:25;1.00;;;1.00;;
7879;SDS011;3985;49.366;2.738;2023-07-29T08:18:53;1.00;;;1.00;;
7879;SDS011;3985;49.366;2.738;2023-07-29T08:21:20;0.80;;;0.80;;
7879;SDS011;3985;49.366;2.738;2023-07-29T08:23:47;0.00;;;0.00;;
7879;SDS011;3985;49.366;2.738;2023-07-29T08:26:15;1.00;;;1.00;;
7879;SDS011;3985;49.366;2.738;2023-07-29T08:28:42;0.00;;;0.00;;
7879;SDS011;3985;49.366;2.738;2023-07-29T08:31:09;1.60;;;1.60;;
7879;SDS011;3985;49.366;2.738;2023-07-29T08:33:38;0.40;;;0.40;;
7879;SDS011;3985;49.366;2.738;2023-07-29T08:36:05;1.20;;;0.60;;
7879;SDS011;3985;49.366;2.738;2023-07-29T08:38:34;2.00;;;0.20;;
7879;SDS011;3985;49.366;2.738;2023-07-29T08:41:04;0.80;;;0.80;;
7879;SDS011;3985;49.366;2.738;2023-07-29T08:43:46;0.20;;;0.20;;
7879;SDS011;3985;49.366;2.738;2023-07-29T08:46:19;0.00;;;0.00;;
7879;SDS011;3985;49.366;2.738;2023-07-29T08:48:47;0.00;;;0.00;;
7879;SDS011;3985;49.366;2.738;2023-07-29T08:51:14;1.00;;;1.00;;
7879;SDS011;3985;49.366;2.738;2023-07-29T08:53:42;0.00;;;0.00;;
7879;SDS011;3985;49.366;2.738;2023-07-29T08:56:09;0.80;;;0.00;;
7879;SDS011;3985;49.366;2.738;2023-07-29T08:58:36;0.00;;;0.00;;
7879;SDS011;3985;49.366;2.738;2023-07-29T09:01:05;0.60;;;0.60;;
7879;SDS011;3985;49.366;2.738;2023-07-29T09:03:32;1.00;;;1.00;;
7879;SDS011;3985;49.366;2.738;2023-07-29T09:06:01;0.00;;;0.00;;
7879;SDS011;3985;49.366;2.738;2023-07-29T09:08:29;0.20;;;0.20;;
7879;SDS011;3985;49.366;2.738;2023-07-29T09:10:57;0.60;;;0.60;;
7879;SDS011;3985;49.366;2.738;2023-07-29T09:13:24;0.40;;;0.40;;
7879;SDS011;3985;49.366;2.738;2023-07-29T09:15:53;0.00;;;0.00;;
7879;SDS011;3985;49.366;2.738;2023-07-29T09:18:22;1.00;;;1.00;;
7879;SDS011;3985;49.366;2.738;2023-07-29T09:20:49;0.00;;;0.00;;
7879;SDS011;3985;49.366;2.738;2023-07-29T09:23:18;0.40;;;0.40;;
7879;SDS011;3985;49.366;2.738;2023-07-29T09:25:46;1.00;;;1.00;;
7879;SDS011;3985;49.366;2.738;2023-07-29T09:28:14;0.60;;;0.60;;
7879;SDS011;3985;49.366;2.738;2023-07-29T09:30:42;0.80;;;0.80;;
7879;SDS011;3985;49.366;2.738;2023-07-29T09:33:11;0.80;;;0.80;;
7879;SDS011;3985;49.366;2.738;2023-07-29T09:35:38;0.20;;;0.20;;
7879;SDS011;3985;49.366;2.738;2023-07-29T09:38:06;1.00;;;1.00;;
7879;SDS011;3985;49.366;2.738;2023-07-29T09:40:37;0.00;;;0.00;;
7879;SDS011;3985;49.366;2.738;2023-07-29T09:43:05;0.60;;;0.60;;
7879;SDS011;3985;49.366;2.738;2023-07-29T09:45:34;0.00;;;0.00;;
7879;SDS011;3985;49.366;2.738;2023-07-29T09:48:03;0.00;;;0.00;;
7879;SDS011;3985;49.366;2.738;2023-07-29T09:50:34;0.00;;;0.00;;
7879;SDS011;3985;49.366;2.738;2023-07-29T09:53:01;0.00;;;0.00;;
7879;SDS011;3985;49.366;2.738;2023-07-29T09:55:29;0.00;;;0.00;;
7879;SDS011;3985;49.366;2.738;2023-07-29T09:58:00;0.40;;;0.40;;
7879;SDS011;3985;49.366;2.738;2023-07-29T10:00:30;0.40;;;0.40;;
7879;SDS011;3985;49.366;2.738;2023-07-29T10:02:58;0.00;;;0.00;;
7879;SDS011;3985;49.366;2.738;2023-07-29T10:05:25;0.40;;;0.40;;
7879;SDS011;3985;49.366;2.738;2023-07-29T10:07:53;0.00;;;0.00;;
7879;SDS011;3985;49.366;2.738;2023-07-29T10:10:21;0.20;;;0.20;;
7879;SDS011;3985;49.366;2.738;2023-07-29T10:12:49;0.00;;;0.00;;
7879;SDS011;3985;49.366;2.738;2023-07-29T10:15:18;0.80;;;0.80;;
7879;SDS011;3985;49.366;2.738;2023-07-29T10:17:45;0.20;;;0.20;;
7879;SDS011;3985;49.366;2.738;2023-07-29T10:20:13;0.80;;;0.80;;
7879;SDS011;3985;49.366;2.738;2023-07-29T10:22:40;0.00;;;0.00;;
7879;SDS011;3985;49.366;2.738;2023-07-29T10:25:08;0.00;;;0.00;;
7879;SDS011;3985;49.366;2.738;2023-07-29T10:27:42;0.00;;;0.00;;
7879;SDS011;3985;49.366;2.738;2023-07-29T10:30:10;0.00;;;0.00;;
7879;SDS011;3985;49.366;2.738;2023-07-29T10:32:41;0.80;;;0.80;;
7879;SDS011;3985;49.366;2.738;2023-07-29T10:35:10;0.80;;;0.80;;
7879;SDS011;3985;49.366;2.738;2023-07-29T10:37:37;0.00;;;0.00;;
7879;SDS011;3985;49.366;2.738;2023-07-29T10:40:06;0.00;;;0.00;;
7879;SDS011;3985;49.366;2.738;2023-07-29T10:42:34;0.00;;;0.00;;
7879;SDS011;3985;49.366;2.738;2023-07-29T10:45:16;0.00;;;0.00;;
7879;SDS011;3985;49.366;2.738;2023-07-29T10:47:47;0.00;;;0.00;;
7879;SDS011;3985;49.366;2.738;2023-07-29T10:50:17;0.60;;;0.60;;
7879;SDS011;3985;49.366;2.738;2023-07-29T10:52:48;0.00;;;0.00;;
7879;SDS011;3985;49.366;2.738;2023-07-29T10:55:24;0.00;;;0.00;;
7879;SDS011;3985;49.366;2.738;2023-07-29T10:57:52;0.00;;;0.00;;
7879;SDS011;3985;49.366;2.738;2023-07-29T11:00:30;0.20;;;0.20;;
7879;SDS011;3985;49.366;2.738;2023-07-29T11:03:00;0.20;;;0.20;;
7879;SDS011;3985;49.366;2.738;2023-07-29T11:05:41;0.20;;;0.20;;
7879;SDS011;3985;49.366;2.738;2023-07-29T11:08:16;0.00;;;0.00;;
7879;SDS011;3985;49.366;2.738;2023-07-29T11:11:01;0.00;;;0.00;;
7879;SDS011;3985;49.366;2.738;2023-07-29T11:13:30;0.80;;;0.80;;
7879;SDS011;3985;49.366;2.738;2023-07-29T11:15:58;0.00;;;0.00;;
7879;SDS011;3985;49.366;2.738;2023-07-29T11:18:28;0.00;;;0.00;;
7879;SDS011;3985;49.366;2.738;2023-07-29T11:20:57;0.60;;;0.60;;
7879;SDS011;3985;49.366;2.738;2023-07-29T11:23:29;0.00;;;0.00;;
7879;SDS011;3985;49.366;2.738;2023-07-29T11:25:57;0.80;;;0.80;;
7879;SDS011;3985;49.366;2.738;2023-07-29T11:28:25;0.20;;;0.20;;
7879;SDS011;3985;49.366;2.738;2023-07-29T11:30:53;2.40;;;0.20;;
7879;SDS011;3985;49.366;2.738;2023-07-29T11:33:21;0.20;;;0.20;;
7879;SDS011;3985;49.366;2.738;2023-07-29T11:35:51;0.00;;;0.00;;
7879;SDS011;3985;49.366;2.738;2023-07-29T11:38:20;0.00;;;0.00;;
7879;SDS011;3985;49.366;2.738;2023-07-29T11:40:54;0.00;;;0.00;;
7879;SDS011;3985;49.366;2.738;2023-07-29T11:43:22;0.00;;;0.00;;
7879;SDS011;3985;49.366;2.738;2023-07-29T11:45:50;0.00;;;0.00;;
7879;SDS011;3985;49.366;2.738;2023-07-29T11:48:18;0.00;;;0.00;;
7879;SDS011;3985;49.366;2.738;2023-07-29T11:50:54;0.00;;;0.00;;
7879;SDS011;3985;49.366;2.738;2023-07-29T11:53:21;0.00;;;0.00;;
7879;SDS011;3985;49.366;2.738;2023-07-29T11:55:50;0.00;;;0.00;;
7879;SDS011;3985;49.366;2.738;2023-07-29T11:58:18;0.00;;;0.00;;
7879;SDS011;3985;49.366;2.738;2023-07-29T12:00:45;0.00;;;0.00;;
7879;SDS011;3985;49.366;2.738;2023-07-29T12:03:13;0.00;;;0.00;;
7879;SDS011;3985;49.366;2.738;2023-07-29T12:05:42;0.00;;;0.00;;
7879;SDS011;3985;49.366;2.738;2023-07-29T12:08:11;0.00;;;0.00;;
7879;SDS011;3985;49.366;2.738;2023-07-29T12:10:38;0.80;;;0.00;;
7879;SDS011;3985;49.366;2.738;2023-07-29T12:13:07;2.00;;;0.00;;
7879;SDS011;3985;49.366;2.738;2023-07-29T12:15:35;0.00;;;0.00;;
7879;SDS011;3985;49.366;2.738;2023-07-29T12:18:05;0.00;;;0.00;;
7879;SDS011;3985;49.366;2.738;2023-07-29T12:20:34;1.00;;;0.00;;
7879;SDS011;3985;49.366;2.738;2023-07-29T12:23:02;0.00;;;0.00;;
7879;SDS011;3985;49.366;2.738;2023-07-29T12:25:32;0.60;;;0.00;;
7879;SDS011;3985;49.366;2.738;2023-07-29T12:28:03;0.00;;;0.00;;
7879;SDS011;3985;49.366;2.738;2023-07-29T12:30:31;0.00;;;0.00;;
7879;SDS011;3985;49.366;2.738;2023-07-29T12:32:58;0.00;;;0.00;;
7879;SDS011;3985;49.366;2.738;2023-07-29T12:35:33;0.00;;;0.00;;
7879;SDS011;3985;49.366;2.738;2023-07-29T12:38:01;0.00;;;0.00;;
7879;SDS011;3985;49.366;2.738;2023-07-29T12:40:29;0.00;;;0.00;;
7879;SDS011;3985;49.366;2.738;2023-07-29T12:42:57;0.00;;;0.00;;
7879;SDS011;3985;49.366;2.738;2023-07-29T12:45:25;0.00;;;0.00;;
7879;SDS011;3985;49.366;2.738;2023-07-29T12:47:53;0.00;;;0.00;;
7879;SDS011;3985;49.366;2.738;2023-07-29T12:50:21;0.00;;;0.00;;
7879;SDS011;3985;49.366;2.738;2023-07-29T12:52:49;1.00;;;0.00;;
7879;SDS011;3985;49.366;2.738;2023-07-29T12:55:16;0.00;;;0.00;;
7879;SDS011;3985;49.366;2.738;2023-07-29T12:57:43;0.40;;;0.40;;
7879;SDS011;3985;49.366;2.738;2023-07-29T13:00:12;0.20;;;0.20;;
7879;SDS011;3985;49.366;2.738;2023-07-29T13:02:40;0.00;;;0.00;;
7879;SDS011;3985;49.366;2.738;2023-07-29T13:05:08;0.40;;;0.00;;
7879;SDS011;3985;49.366;2.738;2023-07-29T13:07:37;3.60;;;2.60;;
7879;SDS011;3985;49.366;2.738;2023-07-29T13:10:05;0.20;;;0.20;;
7879;SDS011;3985;49.366;2.738;2023-07-29T13:12:32;0.00;;;0.00;;
7879;SDS011;3985;49.366;2.738;2023-07-29T13:15:00;0.40;;;0.40;;
7879;SDS011;3985;49.366;2.738;2023-07-29T13:17:28;0.00;;;0.00;;
7879;SDS011;3985;49.366;2.738;2023-07-29T13:19:58;0.40;;;0.40;;
7879;SDS011;3985;49.366;2.738;2023-07-29T13:22:26;0.00;;;0.00;;
7879;SDS011;3985;49.366;2.738;2023-07-29T13:24:53;0.00;;;0.00;;
7879;SDS011;3985;49.366;2.738;2023-07-29T13:27:20;0.00;;;0.00;;
7879;SDS011;3985;49.366;2.738;2023-07-29T13:29:47;1.00;;;1.00;;
7879;SDS011;3985;49.366;2.738;2023-07-29T13:32:15;0.00;;;0.00;;
7879;SDS011;3985;49.366;2.738;2023-07-29T13:34:43;0.40;;;0.40;;
7879;SDS011;3985;49.366;2.738;2023-07-29T13:37:10;0.00;;;0.00;;
7879;SDS011;3985;49.366;2.738;2023-07-29T13:39:37;0.00;;;0.00;;
7879;SDS011;3985;49.366;2.738;2023-07-29T13:42:05;0.00;;;0.00;;
7879;SDS011;3985;49.366;2.738;2023-07-29T13:44:32;0.00;;;0.00;;
7879;SDS011;3985;49.366;2.738;2023-07-29T13:47:00;0.60;;;0.00;;
7879;SDS011;3985;49.366;2.738;2023-07-29T13:49:27;0.00;;;0.00;;
7879;SDS011;3985;49.366;2.738;2023-07-29T13:51:55;1.00;;;1.00;;
7879;SDS011;3985;49.366;2.738;2023-07-29T13:54:23;0.00;;;0.00;;
7879;SDS011;3985;49.366;2.738;2023-07-29T13:56:50;0.00;;;0.00;;
7879;SDS011;3985;49.366;2.738;2023-07-29T13:59:19;0.40;;;0.00;;
7879;SDS011;3985;49.366;2.738;2023-07-29T14:01:46;0.80;;;0.80;;
7879;SDS011;3985;49.366;2.738;2023-07-29T14:04:13;0.00;;;0.00;;
7879;SDS011;3985;49.366;2.738;2023-07-29T14:06:40;1.00;;;1.00;;
7879;SDS011;3985;49.366;2.738;2023-07-29T14:09:12;4.20;;;1.80;;
7879;SDS011;3985;49.366;2.738;2023-07-29T14:11:39;2.00;;;1.80;;
7879;SDS011;3985;49.366;2.738;2023-07-29T14:14:07;0.20;;;0.20;;
7879;SDS011;3985;49.366;2.738;2023-07-29T14:16:35;0.80;;;0.80;;
7879;SDS011;3985;49.366;2.738;2023-07-29T14:19:05;3.20;;;0.00;;
7879;SDS011;3985;49.366;2.738;2023-07-29T14:21:32;1.80;;;0.00;;
7879;SDS011;3985;49.366;2.738;2023-07-29T14:23:59;0.80;;;0.80;;
7879;SDS011;3985;49.366;2.738;2023-07-29T14:26:28;0.00;;;0.00;;
7879;SDS011;3985;49.366;2.738;2023-07-29T14:28:55;0.00;;;0.00;;
7879;SDS011;3985;49.366;2.738;2023-07-29T14:31:23;0.80;;;0.00;;
7879;SDS011;3985;49.366;2.738;2023-07-29T14:33:50;0.00;;;0.00;;
7879;SDS011;3985;49.366;2.738;2023-07-29T14:36:17;0.00;;;0.00;;
7879;SDS011;3985;49.366;2.738;2023-07-29T14:38:44;0.00;;;0.00;;
7879;SDS011;3985;49.366;2.738;2023-07-29T14:41:12;0.00;;;0.00;;
7879;SDS011;3985;49.366;2.738;2023-07-29T14:43:41;1.00;;;0.20;;
7879;SDS011;3985;49.366;2.738;2023-07-29T14:46:08;0.00;;;0.00;;
7879;SDS011;3985;49.366;2.738;2023-07-29T14:48:35;0.00;;;0.00;;
7879;SDS011;3985;49.366;2.738;2023-07-29T14:51:02;0.20;;;0.20;;
7879;SDS011;3985;49.366;2.738;2023-07-29T14:53:30;0.00;;;0.00;;
7879;SDS011;3985;49.366;2.738;2023-07-29T14:55:57;0.60;;;0.60;;
7879;SDS011;3985;49.366;2.738;2023-07-29T14:58:24;0.00;;;0.00;;
7879;SDS011;3985;49.366;2.738;2023-07-29T15:00:53;0.40;;;0.40;;
7879;SDS011;3985;49.366;2.738;2023-07-29T15:03:20;0.00;;;0.00;;
7879;SDS011;3985;49.366;2.738;2023-07-29T15:05:47;0.80;;;0.00;;
7879;SDS011;3985;49.366;2.738;2023-07-29T15:08:15;0.00;;;0.00;;
7879;SDS011;3985;49.366;2.738;2023-07-29T15:10:44;0.20;;;0.20;;
7879;SDS011;3985;49.366;2.738;2023-07-29T15:13:12;0.00;;;0.00;;
7879;SDS011;3985;49.366;2.738;2023-07-29T15:15:42;0.40;;;0.00;;
7879;SDS011;3985;49.366;2.738;2023-07-29T15:18:11;0.20;;;0.20;;
7879;SDS011;3985;49.366;2.738;2023-07-29T15:20:38;1.20;;;0.20;;
7879;SDS011;3985;49.366;2.738;2023-07-29T15:23:05;3.60;;;0.40;;